Time;durP1;ratioP1;P1;durP2;ratioP2;P2;SDS_P1;SDS_P2;PMS_P1;PMS_P2;Temp;Humidity;BMP_temperature;BMP_pressure;BME280_temperature;BME280_humidity;BME280_pressure;Samples;Min_cycle;Max_cycle;Signal;HPM_P1;HPM_P2
2022/04/06 00:01:49;;;;;;;9.65;4.80;;;;;;;;;;5049677;28;20025;-53
2022/04/06 00:04:15;;;;;;;12.25;5.35;;;;;;;;;;5047857;28;20104;-53
2022/04/06 00:06:41;;;;;;;8.70;4.97;;;;;;;;;;5049929;28;20037;-54
2022/04/06 00:09:07;;;;;;;9.98;5.22;;;;;;;;;;5048945;28;20489;-54
2022/04/06 00:11:33;;;;;;;10.07;5.22;;;;;;;;;;5049142;28;20044;-55
2022/04/06 00:13:59;;;;;;;10.98;5.25;;;;;;;;;;5049502;28;20438;-54
2022/04/06 00:16:25;;;;;;;9.70;4.80;;;;;;;;;;5049247;28;20021;-53
2022/04/06 00:18:52;;;;;;;10.57;4.82;;;;;;;;;;5048484;28;20112;-50
2022/04/06 00:21:19;;;;;;;9.13;4.35;;;;;;;;;;5049228;28;20126;-52
2022/04/06 00:23:45;;;;;;;8.18;4.30;;;;;;;;;;5049418;28;20075;-53
2022/04/06 00:26:11;;;;;;;8.82;4.60;;;;;;;;;;5049606;28;20111;-49
2022/04/06 00:28:37;;;;;;;12.68;5.13;;;;;;;;;;5048538;28;20053;-53
2022/04/06 00:31:03;;;;;;;12.32;5.00;;;;;;;;;;5048610;28;20078;-51
2022/04/06 00:33:29;;;;;;;8.05;4.47;;;;;;;;;;5046545;28;20033;-53
2022/04/06 00:35:56;;;;;;;10.88;5.28;;;;;;;;;;5048964;28;20055;-53
2022/04/06 00:38:22;;;;;;;7.22;4.13;;;;;;;;;;5048613;28;20037;-49
2022/04/06 00:40:48;;;;;;;9.40;4.53;;;;;;;;;;5048793;28;20166;-50
2022/04/06 00:43:15;;;;;;;8.02;4.35;;;;;;;;;;5048921;28;20111;-51
2022/04/06 00:45:42;;;;;;;9.60;5.18;;;;;;;;;;5048266;28;20132;-49
2022/04/06 00:48:08;;;;;;;9.07;4.53;;;;;;;;;;5048383;28;20079;-53
2022/04/06 00:50:35;;;;;;;7.95;4.18;;;;;;;;;;5047954;28;20033;-54
2022/04/06 00:53:01;;;;;;;8.55;4.60;;;;;;;;;;5048338;28;20021;-51
2022/04/06 00:55:34;;;;;;;10.10;4.78;;;;;;;;;;5047782;28;20031;-53
2022/04/06 00:58:01;;;;;;;11.43;4.10;;;;;;;;;;5028670;28;20117;-50
2022/04/06 01:00:27;;;;;;;11.35;4.65;;;;;;;;;;5043282;28;20108;-50
2022/04/06 01:02:54;;;;;;;10.48;5.07;;;;;;;;;;5048000;28;20100;-49
2022/04/06 01:05:20;;;;;;;8.57;4.38;;;;;;;;;;5047869;28;20025;-51
2022/04/06 01:07:48;;;;;;;9.27;4.30;;;;;;;;;;5048576;28;20198;-52
2022/04/06 01:10:14;;;;;;;9.70;4.18;;;;;;;;;;5048461;28;20041;-47
2022/04/06 01:12:41;;;;;;;9.65;4.50;;;;;;;;;;5048176;28;20017;-48
2022/04/06 01:15:07;;;;;;;7.68;3.70;;;;;;;;;;5048470;28;20060;-48
2022/04/06 01:17:34;;;;;;;9.02;4.10;;;;;;;;;;5048150;28;20035;-51
2022/04/06 01:20:00;;;;;;;8.65;4.47;;;;;;;;;;5047442;28;20309;-50
2022/04/06 01:22:27;;;;;;;9.80;4.88;;;;;;;;;;5047793;28;20029;-53
2022/04/06 01:24:53;;;;;;;9.55;4.30;;;;;;;;;;5037218;28;20042;-54
2022/04/06 01:27:19;;;;;;;9.40;3.58;;;;;;;;;;5048016;28;20112;-51
2022/04/06 01:29:46;;;;;;;9.52;4.15;;;;;;;;;;5047619;28;20575;-47
2022/04/06 01:32:19;;;;;;;8.98;4.20;;;;;;;;;;5047730;28;20048;-54
2022/04/06 01:34:46;;;;;;;7.18;3.95;;;;;;;;;;5046802;28;20491;-50
2022/04/06 01:37:13;;;;;;;7.95;3.97;;;;;;;;;;5047647;28;20025;-51
2022/04/06 01:39:40;;;;;;;8.15;3.85;;;;;;;;;;5047630;28;20036;-49
2022/04/06 01:42:07;;;;;;;8.48;4.03;;;;;;;;;;5047456;28;20545;-52
2022/04/06 01:44:33;;;;;;;8.57;4.00;;;;;;;;;;5047656;28;20033;-47
2022/04/06 01:47:04;;;;;;;10.38;3.97;;;;;;;;;;5047182;28;20036;-48
2022/04/06 01:52:16;;;;;;;9.00;4.50;;;;;;;;;;5043418;28;20051;-52
2022/04/06 01:54:50;;;;;;;8.10;3.60;;;;;;;;;;5047418;28;20060;-48
2022/04/06 01:57:16;;;;;;;7.35;3.78;;;;;;;;;;5047473;28;20116;-47
2022/04/06 01:59:42;;;;;;;8.48;4.05;;;;;;;;;;5047546;28;20040;-51
2022/04/06 02:02:09;;;;;;;7.03;4.03;;;;;;;;;;5047160;28;20636;-50
2022/04/06 02:04:35;;;;;;;8.25;4.20;;;;;;;;;;5033009;28;20021;-52
2022/04/06 02:07:01;;;;;;;8.95;3.55;;;;;;;;;;5044802;28;20100;-51
2022/04/06 02:09:27;;;;;;;8.40;3.90;;;;;;;;;;5047368;28;20029;-50
2022/04/06 02:11:54;;;;;;;8.00;3.67;;;;;;;;;;5047562;28;20116;-49
2022/04/06 02:14:20;;;;;;;8.57;3.90;;;;;;;;;;5047317;28;20032;-52
2022/04/06 02:16:46;;;;;;;10.32;4.93;;;;;;;;;;5045631;28;20453;-47
2022/04/06 02:19:12;;;;;;;9.23;3.95;;;;;;;;;;5047237;28;20474;-51
2022/04/06 02:21:38;;;;;;;6.10;3.40;;;;;;;;;;5047036;28;20847;-54
2022/04/06 02:24:04;;;;;;;9.52;3.92;;;;;;;;;;5047016;28;20044;-51
2022/04/06 02:26:30;;;;;;;7.70;3.47;;;;;;;;;;5047214;28;20067;-48
2022/04/06 02:28:57;;;;;;;8.63;3.70;;;;;;;;;;5046916;28;20056;-51
2022/04/06 02:31:23;;;;;;;7.70;4.10;;;;;;;;;;5046135;28;20037;-50
2022/04/06 02:33:49;;;;;;;8.18;3.80;;;;;;;;;;5046879;28;20037;-51
2022/04/06 02:36:16;;;;;;;7.80;3.60;;;;;;;;;;5047204;28;20025;-52
2022/04/06 02:38:42;;;;;;;8.15;3.80;;;;;;;;;;5046577;28;20033;-53
2022/04/06 02:41:08;;;;;;;10.35;4.13;;;;;;;;;;5047306;28;20025;-53
2022/04/06 02:43:35;;;;;;;8.82;3.70;;;;;;;;;;5046677;28;20028;-52
2022/04/06 02:46:01;;;;;;;6.32;3.05;;;;;;;;;;5044884;28;20079;-52
2022/04/06 02:48:27;;;;;;;6.47;3.47;;;;;;;;;;5036486;28;20107;-51
2022/04/06 02:50:54;;;;;;;7.28;3.60;;;;;;;;;;5047200;28;20178;-49
2022/04/06 02:53:20;;;;;;;8.30;3.47;;;;;;;;;;5046717;28;20044;-51
2022/04/06 02:55:46;;;;;;;6.38;3.47;;;;;;;;;;5046123;28;20029;-50
2022/04/06 02:58:12;;;;;;;8.13;3.42;;;;;;;;;;5046420;28;20452;-48
2022/04/06 03:00:38;;;;;;;7.43;2.90;;;;;;;;;;5046809;28;20025;-52
2022/04/06 03:03:04;;;;;;;7.20;3.47;;;;;;;;;;5045733;28;20488;-52
2022/04/06 03:05:30;;;;;;;6.43;3.20;;;;;;;;;;5046473;28;20105;-49
2022/04/06 03:07:56;;;;;;;8.52;3.38;;;;;;;;;;5047082;28;20433;-51
2022/04/06 03:10:22;;;;;;;7.93;3.78;;;;;;;;;;5046337;28;20117;-49
2022/04/06 03:12:49;;;;;;;6.72;3.13;;;;;;;;;;5046994;28;20473;-51
2022/04/06 03:15:15;;;;;;;7.57;3.33;;;;;;;;;;5043615;28;20025;-49
2022/04/06 03:17:42;;;;;;;7.18;3.53;;;;;;;;;;5029899;28;20033;-51
2022/04/06 03:20:08;;;;;;;5.03;2.80;;;;;;;;;;5045691;28;20029;-52
2022/04/06 03:22:34;;;;;;;6.88;3.15;;;;;;;;;;5048929;28;20039;-53
2022/04/06 03:25:00;;;;;;;7.10;3.28;;;;;;;;;;5043702;28;20029;-52
2022/04/06 03:27:26;;;;;;;6.78;3.38;;;;;;;;;;5050242;28;20128;-51
2022/04/06 03:29:52;;;;;;;8.63;3.90;;;;;;;;;;5049794;28;20071;-51
2022/04/06 03:32:18;;;;;;;7.35;3.72;;;;;;;;;;5049744;28;20021;-49
2022/04/06 03:34:44;;;;;;;5.82;3.13;;;;;;;;;;5050360;28;20033;-52
2022/04/06 03:37:10;;;;;;;6.43;3.45;;;;;;;;;;5049992;28;20035;-53
2022/04/06 03:39:36;;;;;;;7.63;2.97;;;;;;;;;;5036900;28;20048;-51
2022/04/06 03:42:03;;;;;;;6.75;2.97;;;;;;;;;;5049916;28;20436;-50
2022/04/06 03:44:29;;;;;;;5.10;2.70;;;;;;;;;;5050295;28;20033;-51
2022/04/06 03:46:56;;;;;;;7.93;3.10;;;;;;;;;;5049624;28;20021;-51
2022/04/06 03:49:22;;;;;;;8.73;3.22;;;;;;;;;;5050261;28;20029;-53
2022/04/06 03:51:48;;;;;;;7.47;3.13;;;;;;;;;;5049368;28;20157;-53
2022/04/06 03:54:14;;;;;;;7.65;3.17;;;;;;;;;;5050301;28;20510;-50
2022/04/06 03:56:40;;;;;;;6.63;2.70;;;;;;;;;;5049462;28;20033;-52
2022/04/06 03:59:07;;;;;;;5.68;2.72;;;;;;;;;;5049837;28;20684;-51
2022/04/06 04:01:35;;;;;;;6.22;2.63;;;;;;;;;;5049095;28;20029;-52
2022/04/06 04:04:07;;;;;;;6.57;2.88;;;;;;;;;;5049593;28;20490;-52
2022/04/06 04:06:33;;;;;;;7.10;2.88;;;;;;;;;;5049711;28;20361;-53
2022/04/06 04:09:00;;;;;;;6.07;2.58;;;;;;;;;;5049944;28;20550;-52
2022/04/06 04:11:26;;;;;;;5.90;2.60;;;;;;;;;;5049550;28;20079;-53
2022/04/06 04:13:52;;;;;;;6.30;2.33;;;;;;;;;;5049378;28;20826;-53
2022/04/06 04:16:18;;;;;;;7.55;2.75;;;;;;;;;;5048104;28;20507;-48
2022/04/06 04:18:45;;;;;;;5.53;2.65;;;;;;;;;;5049074;28;20067;-53
2022/04/06 04:23:56;;;;;;;6.57;2.60;;;;;;;;;;5049269;28;20075;-51
2022/04/06 04:26:22;;;;;;;6.13;2.47;;;;;;;;;;5049059;28;20414;-50
2022/04/06 04:28:48;;;;;;;4.57;2.58;;;;;;;;;;5049610;28;20045;-51
2022/04/06 04:31:14;;;;;;;5.85;2.60;;;;;;;;;;5048111;28;20037;-52
2022/04/06 04:33:41;;;;;;;5.55;2.35;;;;;;;;;;5049019;28;20435;-50
2022/04/06 04:36:07;;;;;;;7.65;3.05;;;;;;;;;;5049053;28;20613;-52
2022/04/06 04:38:33;;;;;;;5.32;2.72;;;;;;;;;;5048803;28;20096;-48
2022/04/06 04:40:59;;;;;;;6.88;2.80;;;;;;;;;;5049444;28;20041;-51
2022/04/06 04:43:25;;;;;;;6.50;2.60;;;;;;;;;;5048405;28;20099;-53
2022/04/06 04:45:51;;;;;;;6.15;3.08;;;;;;;;;;5038841;28;20036;-53
2022/04/06 04:48:17;;;;;;;8.80;2.55;;;;;;;;;;5048843;28;20033;-52
2022/04/06 04:50:43;;;;;;;7.20;3.53;;;;;;;;;;5048274;28;20044;-54
2022/04/06 04:53:09;;;;;;;6.65;2.85;;;;;;;;;;5039882;28;20543;-53
2022/04/06 04:55:35;;;;;;;5.53;2.30;;;;;;;;;;5046311;28;20029;-50
2022/04/06 04:58:01;;;;;;;7.65;3.00;;;;;;;;;;5047704;28;20478;-51
2022/04/06 05:00:27;;;;;;;11.82;2.60;;;;;;;;;;5043470;28;20030;-52
2022/04/06 05:02:53;;;;;;;9.40;2.67;;;;;;;;;;5037803;28;20501;-52
2022/04/06 05:05:19;;;;;;;10.52;2.60;;;;;;;;;;5048284;28;20031;-52
2022/04/06 05:07:45;;;;;;;10.00;2.65;;;;;;;;;;5046125;28;20502;-53
2022/04/06 05:10:11;;;;;;;9.38;2.58;;;;;;;;;;5048217;28;20051;-54
2022/04/06 05:12:37;;;;;;;14.73;2.72;;;;;;;;;;5048355;28;20033;-52
2022/04/06 05:15:04;;;;;;;7.35;2.83;;;;;;;;;;5048385;28;20064;-52
2022/04/06 05:17:30;;;;;;;11.35;3.45;;;;;;;;;;5047075;28;20043;-51
2022/04/06 05:19:56;;;;;;;11.98;3.70;;;;;;;;;;5047519;28;20112;-51
2022/04/06 05:22:22;;;;;;;11.93;3.50;;;;;;;;;;5047826;28;20083;-50
2022/04/06 05:24:48;;;;;;;11.55;3.33;;;;;;;;;;5047760;28;20029;-52
2022/04/06 05:27:14;;;;;;;7.90;2.55;;;;;;;;;;5047526;28;20028;-53
2022/04/06 05:29:42;;;;;;;9.70;3.00;;;;;;;;;;5046906;28;20141;-51
2022/04/06 05:32:08;;;;;;;8.98;3.33;;;;;;;;;;5046741;28;20049;-54
2022/04/06 05:34:35;;;;;;;13.95;3.45;;;;;;;;;;5046980;28;20067;-50
2022/04/06 05:37:01;;;;;;;15.98;3.85;;;;;;;;;;5047692;28;20029;-50
2022/04/06 05:39:27;;;;;;;9.48;3.15;;;;;;;;;;5042382;28;20123;-49
2022/04/06 05:41:53;;;;;;;20.58;4.68;;;;;;;;;;5046427;28;20570;-52
2022/04/06 05:44:19;;;;;;;20.30;3.97;;;;;;;;;;5047548;28;20119;-54
2022/04/06 05:46:45;;;;;;;11.95;3.05;;;;;;;;;;5046137;28;20028;-51
2022/04/06 05:49:11;;;;;;;17.35;2.80;;;;;;;;;;5047517;28;20028;-52
2022/04/06 05:51:37;;;;;;;9.32;2.95;;;;;;;;;;5040573;28;20041;-51
2022/04/06 05:54:04;;;;;;;9.73;2.33;;;;;;;;;;5038622;28;20025;-54
2022/04/06 05:56:30;;;;;;;13.55;3.40;;;;;;;;;;5039421;28;20060;-52
2022/04/06 05:58:56;;;;;;;19.75;3.35;;;;;;;;;;5038196;28;20028;-54
2022/04/06 06:01:22;;;;;;;10.65;2.88;;;;;;;;;;5042578;28;20020;-52
2022/04/06 06:03:49;;;;;;;10.23;3.35;;;;;;;;;;5039909;28;20107;-49
2022/04/06 06:06:15;;;;;;;11.77;2.60;;;;;;;;;;5041184;28;20029;-51
2022/04/06 06:08:41;;;;;;;9.98;2.40;;;;;;;;;;5036060;28;20031;-49
2022/04/06 06:11:08;;;;;;;8.25;2.17;;;;;;;;;;5042276;28;20048;-51
2022/04/06 06:13:34;;;;;;;11.38;2.50;;;;;;;;;;5038622;28;20021;-51
2022/04/06 06:16:00;;;;;;;10.65;2.58;;;;;;;;;;5040633;28;20052;-48
2022/04/06 06:18:27;;;;;;;8.35;2.33;;;;;;;;;;5036965;28;20036;-48
2022/04/06 06:20:53;;;;;;;7.63;1.85;;;;;;;;;;5040671;28;20033;-49
2022/04/06 06:23:20;;;;;;;10.55;2.50;;;;;;;;;;5037489;28;20029;-49
2022/04/06 06:25:46;;;;;;;13.07;2.65;;;;;;;;;;5038553;28;20035;-51
2022/04/06 06:28:12;;;;;;;11.65;2.17;;;;;;;;;;5038032;28;20049;-49
2022/04/06 06:30:38;;;;;;;8.68;2.38;;;;;;;;;;5039814;28;20128;-52
2022/04/06 06:33:04;;;;;;;11.15;2.25;;;;;;;;;;5046683;28;20545;-51
2022/04/06 06:35:30;;;;;;;6.60;2.15;;;;;;;;;;5047121;28;20068;-47
2022/04/06 06:37:57;;;;;;;9.15;3.03;;;;;;;;;;5035773;28;20040;-48
2022/04/06 06:40:24;;;;;;;7.93;2.30;;;;;;;;;;5046127;28;20029;-46
2022/04/06 06:42:50;;;;;;;9.85;1.92;;;;;;;;;;5033538;28;20368;-48
2022/04/06 06:45:16;;;;;;;10.32;2.42;;;;;;;;;;5045742;28;20063;-53
2022/04/06 06:47:43;;;;;;;10.98;2.10;;;;;;;;;;5046011;28;20401;-48
2022/04/06 06:50:12;;;;;;;10.35;2.80;;;;;;;;;;5047141;28;20021;-49
2022/04/06 06:52:38;;;;;;;10.10;2.40;;;;;;;;;;5045714;28;20511;-53
2022/04/06 06:55:07;;;;;;;9.55;2.80;;;;;;;;;;5041200;28;20041;-49
2022/04/06 06:57:32;;;;;;;17.10;3.35;;;;;;;;;;5043058;28;20083;-50
2022/04/06 06:59:59;;;;;;;13.15;2.63;;;;;;;;;;5041135;28;20048;-51
2022/04/06 07:02:25;;;;;;;15.45;2.30;;;;;;;;;;5043575;28;20512;-48
2022/04/06 07:04:51;;;;;;;25.98;5.43;;;;;;;;;;5042264;28;20113;-49
2022/04/06 07:07:17;;;;;;;18.85;3.45;;;;;;;;;;5042031;28;20032;-50
2022/04/06 07:09:43;;;;;;;10.38;2.50;;;;;;;;;;5038036;28;20029;-50
2022/04/06 07:12:10;;;;;;;18.85;2.85;;;;;;;;;;5044009;28;20110;-51
2022/04/06 07:14:37;;;;;;;14.25;3.90;;;;;;;;;;5040917;28;20774;-54
2022/04/06 07:17:03;;;;;;;18.77;3.78;;;;;;;;;;5050980;28;20082;-51
2022/04/06 07:19:29;;;;;;;11.82;2.95;;;;;;;;;;5049221;28;20395;-52
2022/04/06 07:21:55;;;;;;;16.35;2.60;;;;;;;;;;5051397;28;20108;-48
2022/04/06 07:24:21;;;;;;;16.80;3.72;;;;;;;;;;5050687;28;20171;-47
2022/04/06 07:26:47;;;;;;;13.98;2.60;;;;;;;;;;5050510;28;20580;-51
2022/04/06 07:29:15;;;;;;;15.10;2.95;;;;;;;;;;5050485;28;20141;-51
2022/04/06 07:31:42;;;;;;;11.63;3.08;;;;;;;;;;5050700;28;20537;-51
2022/04/06 07:34:09;;;;;;;11.80;2.63;;;;;;;;;;5048636;28;20021;-49
2022/04/06 07:36:35;;;;;;;15.80;2.17;;;;;;;;;;5050486;28;20029;-51
2022/04/06 07:39:02;;;;;;;20.90;2.92;;;;;;;;;;5046499;28;20025;-50
2022/04/06 07:41:28;;;;;;;22.42;3.30;;;;;;;;;;5041489;28;20031;-52
2022/04/06 07:43:54;;;;;;;20.40;3.05;;;;;;;;;;5041045;28;20457;-52
2022/04/06 07:46:20;;;;;;;27.85;4.55;;;;;;;;;;5040922;28;20014;-49
2022/04/06 07:48:46;;;;;;;14.98;2.33;;;;;;;;;;5042125;28;20362;-52
2022/04/06 07:51:12;;;;;;;14.65;2.42;;;;;;;;;;5041932;28;20183;-51
2022/04/06 07:53:38;;;;;;;18.08;2.35;;;;;;;;;;5042146;28;20025;-50
2022/04/06 07:56:06;;;;;;;18.10;3.40;;;;;;;;;;5041009;28;20147;-53
2022/04/06 07:58:32;;;;;;;15.52;2.80;;;;;;;;;;5041250;28;20021;-51
2022/04/06 08:00:59;;;;;;;12.82;2.40;;;;;;;;;;5050208;28;20021;-49
2022/04/06 08:03:24;;;;;;;10.50;2.53;;;;;;;;;;5049410;28;20105;-50
2022/04/06 08:05:51;;;;;;;16.23;2.33;;;;;;;;;;5043463;28;20116;-50
2022/04/06 08:08:17;;;;;;;10.20;2.40;;;;;;;;;;5049831;28;20661;-51
2022/04/06 08:10:43;;;;;;;17.08;2.17;;;;;;;;;;5050213;28;20037;-50
2022/04/06 08:13:10;;;;;;;15.68;3.33;;;;;;;;;;5050592;28;20059;-50
2022/04/06 08:15:36;;;;;;;12.57;2.47;;;;;;;;;;5044279;28;20017;-53
2022/04/06 08:18:02;;;;;;;14.50;2.42;;;;;;;;;;5046386;28;20154;-47
2022/04/06 08:20:28;;;;;;;14.45;1.90;;;;;;;;;;5049648;28;20127;-51
2022/04/06 08:23:09;;;;;;;11.98;1.88;;;;;;;;;;5050142;28;20139;-50
2022/04/06 08:25:41;;;;;;;12.25;2.30;;;;;;;;;;5049608;28;20029;-54
2022/04/06 08:28:08;;;;;;;12.07;1.77;;;;;;;;;;5048021;28;20025;-51
2022/04/06 08:30:40;;;;;;;17.60;3.28;;;;;;;;;;5040294;28;20487;-50
2022/04/06 08:33:06;;;;;;;14.40;2.17;;;;;;;;;;5038617;28;20032;-51
2022/04/06 08:35:34;;;;;;;12.20;2.30;;;;;;;;;;5041472;28;20056;-51
2022/04/06 08:38:08;;;;;;;15.40;2.50;;;;;;;;;;5042836;28;20040;-51
2022/04/06 08:40:44;;;;;;;19.63;2.45;;;;;;;;;;5041777;28;20021;-49
2022/04/06 08:45:56;;;;;;;26.38;3.15;;;;;;;;;;5046969;28;20518;-50
2022/04/06 08:48:28;;;;;;;20.90;2.65;;;;;;;;;;5048472;28;20056;-48
2022/04/06 08:50:55;;;;;;;11.82;2.00;;;;;;;;;;5046330;28;20123;-54
2022/04/06 08:53:21;;;;;;;16.90;2.40;;;;;;;;;;5049484;28;20071;-54
2022/04/06 08:55:47;;;;;;;13.20;2.10;;;;;;;;;;5048470;28;20033;-51
2022/04/06 08:58:16;;;;;;;11.20;2.25;;;;;;;;;;5043321;28;20485;-53
2022/04/06 09:00:42;;;;;;;12.40;1.65;;;;;;;;;;5032939;28;20107;-50
2022/04/06 09:03:18;;;;;;;9.15;1.88;;;;;;;;;;5035675;28;20021;-53
2022/04/06 09:05:44;;;;;;;20.88;2.60;;;;;;;;;;5032746;28;20030;-50
2022/04/06 09:08:10;;;;;;;11.50;2.35;;;;;;;;;;5036061;28;20071;-52
2022/04/06 09:10:38;;;;;;;16.48;2.30;;;;;;;;;;5032810;28;20059;-51
2022/04/06 09:13:15;;;;;;;13.52;2.85;;;;;;;;;;5034239;28;20496;-54
2022/04/06 09:15:43;;;;;;;12.38;2.95;;;;;;;;;;5033946;28;20033;-50
2022/04/06 09:18:10;;;;;;;12.60;2.72;;;;;;;;;;5034620;28;20752;-53
2022/04/06 09:20:36;;;;;;;12.38;1.83;;;;;;;;;;5034762;28;20731;-54
2022/04/06 09:23:03;;;;;;;20.25;2.42;;;;;;;;;;5031689;28;20021;-53
2022/04/06 09:25:49;;;;;;;13.50;2.33;;;;;;;;;;5031315;28;20044;-49
2022/04/06 09:28:17;;;;;;;8.30;1.63;;;;;;;;;;5033601;28;20486;-48
2022/04/06 09:30:46;;;;;;;12.90;1.90;;;;;;;;;;5031402;28;20036;-54
2022/04/06 09:33:18;;;;;;;10.43;1.63;;;;;;;;;;5031242;28;20648;-52
2022/04/06 09:35:45;;;;;;;10.40;2.05;;;;;;;;;;5032492;28;20072;-52
2022/04/06 09:38:12;;;;;;;13.02;2.60;;;;;;;;;;5033079;28;20048;-47
2022/04/06 09:40:39;;;;;;;7.97;1.85;;;;;;;;;;5032877;28;20034;-52
2022/04/06 09:43:06;;;;;;;8.25;2.38;;;;;;;;;;5033542;28;20340;-51
2022/04/06 09:48:17;;;;;;;11.18;2.00;;;;;;;;;;5035503;28;20043;-53
2022/04/06 09:50:55;;;;;;;5.05;1.48;;;;;;;;;;5033560;28;20086;-51
2022/04/06 09:53:25;;;;;;;8.73;2.05;;;;;;;;;;5032618;28;20558;-52
2022/04/06 09:55:53;;;;;;;8.85;1.65;;;;;;;;;;5033437;28;20083;-52
2022/04/06 09:58:21;;;;;;;15.10;3.00;;;;;;;;;;5035936;28;20029;-53
2022/04/06 10:00:47;;;;;;;11.68;2.20;;;;;;;;;;5032802;28;20092;-49
2022/04/06 10:03:15;;;;;;;10.45;2.00;;;;;;;;;;5030572;28;20030;-51
2022/04/06 10:05:42;;;;;;;8.43;1.80;;;;;;;;;;5034198;28;20036;-53
2022/04/06 10:08:09;;;;;;;9.05;1.65;;;;;;;;;;5036409;28;20029;-54
2022/04/06 10:10:38;;;;;;;7.10;2.65;;;;;;;;;;5033933;28;20033;-50
2022/04/06 10:13:04;;;;;;;5.53;1.92;;;;;;;;;;5032602;28;20159;-53
2022/04/06 10:15:31;;;;;;;7.65;1.48;;;;;;;;;;5032770;28;20036;-50
2022/04/06 10:17:57;;;;;;;11.18;1.60;;;;;;;;;;5035097;28;20029;-50
2022/04/06 10:20:26;;;;;;;7.57;1.42;;;;;;;;;;5030169;28;20036;-54
2022/04/06 10:22:59;;;;;;;5.57;1.30;;;;;;;;;;5034328;28;20033;-51
2022/04/06 10:25:36;;;;;;;4.50;1.65;;;;;;;;;;5031699;28;20036;-51
2022/04/06 10:28:05;;;;;;;7.43;1.63;;;;;;;;;;5034087;28;20111;-52
2022/04/06 10:30:31;;;;;;;6.80;1.75;;;;;;;;;;5030197;28;20082;-50
2022/04/06 10:32:57;;;;;;;7.60;1.73;;;;;;;;;;5034986;28;20091;-54
2022/04/06 10:35:34;;;;;;;6.30;1.63;;;;;;;;;;5034561;28;20028;-52
2022/04/06 10:38:00;;;;;;;7.53;1.80;;;;;;;;;;5036112;28;20104;-51
2022/04/06 10:40:28;;;;;;;6.05;2.38;;;;;;;;;;5031662;28;20459;-53
2022/04/06 10:42:54;;;;;;;9.82;2.53;;;;;;;;;;5032502;28;20472;-53
2022/04/06 10:45:23;;;;;;;6.20;1.48;;;;;;;;;;5036404;28;20387;-50
2022/04/06 10:48:08;;;;;;;6.32;1.50;;;;;;;;;;5032765;28;20063;-53
2022/04/06 10:50:35;;;;;;;7.05;1.98;;;;;;;;;;5031233;28;20483;-55
2022/04/06 10:53:26;;;;;;;8.05;1.60;;;;;;;;;;5034591;28;20120;-48
2022/04/06 10:55:58;;;;;;;7.55;1.50;;;;;;;;;;5032260;28;20399;-52
2022/04/06 10:58:26;;;;;;;5.22;1.40;;;;;;;;;;5028003;28;20033;-52
2022/04/06 11:01:10;;;;;;;5.82;1.52;;;;;;;;;;5045665;28;20562;-51
2022/04/06 11:03:41;;;;;;;11.93;2.42;;;;;;;;;;5048179;28;20033;-52
2022/04/06 11:06:07;;;;;;;4.10;1.30;;;;;;;;;;5047800;28;20025;-54
2022/04/06 11:11:37;;;;;;;6.07;1.20;;;;;;;;;;5047238;28;20075;-52
2022/04/06 11:14:04;;;;;;;4.53;1.30;;;;;;;;;;5047646;28;20068;-51
2022/04/06 11:16:52;;;;;;;8.90;2.20;;;;;;;;;;5047494;28;20121;-58
2022/04/06 11:19:18;;;;;;;11.40;2.47;;;;;;;;;;5042398;28;20033;-53
2022/04/06 11:21:52;;;;;;;5.00;1.20;;;;;;;;;;5047247;28;20049;-50
2022/04/06 11:24:23;;;;;;;9.48;2.05;;;;;;;;;;5041687;28;20037;-54
2022/04/06 11:26:50;;;;;;;4.20;1.20;;;;;;;;;;5046369;28;20033;-54
2022/04/06 11:29:16;;;;;;;4.90;1.20;;;;;;;;;;5048571;28;20055;-53
2022/04/06 11:31:58;;;;;;;6.80;1.30;;;;;;;;;;5045209;28;20127;-54
2022/04/06 11:34:38;;;;;;;4.72;1.70;;;;;;;;;;5027753;28;20036;-52
2022/04/06 11:37:06;;;;;;;6.93;1.50;;;;;;;;;;5045316;28;20052;-54
2022/04/06 11:39:33;;;;;;;8.27;1.52;;;;;;;;;;5050249;28;20075;-51
2022/04/06 11:42:01;;;;;;;9.50;1.60;;;;;;;;;;5050129;28;20514;-54
2022/04/06 11:44:28;;;;;;;5.63;1.17;;;;;;;;;;5050884;28;20108;-55
2022/04/06 11:46:54;;;;;;;10.02;1.70;;;;;;;;;;5047192;28;20086;-55
2022/04/06 11:49:21;;;;;;;8.45;2.03;;;;;;;;;;5051424;28;20041;-54
2022/04/06 11:51:47;;;;;;;8.38;1.83;;;;;;;;;;5050891;28;20033;-53
2022/04/06 11:54:13;;;;;;;7.80;1.60;;;;;;;;;;5051194;28;20052;-54
2022/04/06 11:56:40;;;;;;;7.25;1.80;;;;;;;;;;5051009;28;20558;-55
2022/04/06 11:59:10;;;;;;;4.35;1.20;;;;;;;;;;5049665;28;20103;-55
2022/04/06 12:01:42;;;;;;;6.75;1.80;;;;;;;;;;5037180;28;20021;-54
2022/04/06 12:04:22;;;;;;;8.38;2.15;;;;;;;;;;5044811;28;20436;-51
2022/04/06 12:06:48;;;;;;;;;;;;;;;;;;5043230;28;20391;-50
2022/04/06 12:09:14;;;;;;;9.70;2.30;;;;;;;;;;5039326;28;20411;-47
2022/04/06 12:11:41;;;;;;;10.95;2.17;;;;;;;;;;5042770;28;20183;-54
2022/04/06 12:14:11;;;;;;;10.23;1.95;;;;;;;;;;5041426;28;20040;-55
2022/04/06 12:16:40;;;;;;;8.18;2.13;;;;;;;;;;5037950;28;20037;-54
2022/04/06 12:19:08;;;;;;;13.63;2.75;;;;;;;;;;5048723;28;20044;-55
2022/04/06 12:21:40;;;;;;;10.20;1.70;;;;;;;;;;5038309;28;20025;-49
2022/04/06 12:24:06;;;;;;;6.63;1.50;;;;;;;;;;5040260;28;20102;-55
2022/04/06 12:26:39;;;;;;;7.38;2.10;;;;;;;;;;5037059;28;20143;-53
2022/04/06 12:29:05;;;;;;;11.50;4.70;;;;;;;;;;5043311;28;20053;-53
2022/04/06 12:31:34;;;;;;;15.48;3.60;;;;;;;;;;5043201;28;20049;-53
2022/04/06 12:34:00;;;;;;;11.18;3.75;;;;;;;;;;5050427;28;20029;-54
2022/04/06 12:36:27;;;;;;;10.60;4.03;;;;;;;;;;5050261;28;20036;-53
2022/04/06 12:39:01;;;;;;;7.93;3.72;;;;;;;;;;5050058;28;20505;-55
2022/04/06 12:41:31;;;;;;;11.23;2.85;;;;;;;;;;5029768;28;20041;-53
2022/04/06 12:43:58;;;;;;;7.38;2.85;;;;;;;;;;5044980;28;20032;-53
2022/04/06 12:46:38;;;;;;;10.43;2.95;;;;;;;;;;5036767;28;20033;-52
2022/04/06 12:49:36;;;;;;;9.40;3.15;;;;;;;;;;5043264;28;20123;-53
2022/04/06 12:52:03;;;;;;;7.88;2.17;;;;;;;;;;5028136;28;20095;-53
2022/04/06 12:54:31;;;;;;;10.70;2.17;;;;;;;;;;5042264;28;20431;-51
2022/04/06 12:57:04;;;;;;;7.88;2.63;;;;;;;;;;5039347;28;20108;-54
2022/04/06 12:59:50;;;;;;;10.38;2.63;;;;;;;;;;5044938;28;20110;-54
2022/04/06 13:02:20;;;;;;;9.52;2.67;;;;;;;;;;5030106;28;20029;-53
2022/04/06 13:04:46;;;;;;;9.88;2.30;;;;;;;;;;5045883;28;20882;-55
2022/04/06 13:07:12;;;;;;;10.10;2.30;;;;;;;;;;5048660;28;20084;-55
2022/04/06 13:09:52;;;;;;;8.50;2.20;;;;;;;;;;5043525;28;20036;-56
2022/04/06 13:12:18;;;;;;;12.50;3.08;;;;;;;;;;5038252;28;20049;-56
2022/04/06 13:14:44;;;;;;;10.43;2.70;;;;;;;;;;5038615;28;20029;-53
2022/04/06 13:17:10;;;;;;;8.05;2.20;;;;;;;;;;5044080;28;20037;-55
2022/04/06 13:19:37;;;;;;;12.75;2.38;;;;;;;;;;5048669;28;20068;-55
2022/04/06 13:22:05;;;;;;;6.97;1.98;;;;;;;;;;5049253;28;20079;-54
2022/04/06 13:24:31;;;;;;;10.35;2.00;;;;;;;;;;5048868;28;20031;-53
2022/04/06 13:26:57;;;;;;;14.80;2.38;;;;;;;;;;5049841;28;20473;-54
2022/04/06 13:29:24;;;;;;;8.55;2.17;;;;;;;;;;5045859;28;20041;-53
2022/04/06 13:31:50;;;;;;;13.07;2.30;;;;;;;;;;5040314;28;20044;-54
2022/04/06 13:34:19;;;;;;;11.30;2.10;;;;;;;;;;5034426;28;20490;-54
2022/04/06 13:36:45;;;;;;;8.98;2.28;;;;;;;;;;5043026;28;20108;-52
2022/04/06 13:39:12;;;;;;;8.43;2.03;;;;;;;;;;5039859;28;20055;-53
2022/04/06 13:41:38;;;;;;;8.82;1.92;;;;;;;;;;5048431;28;20059;-54
2022/04/06 13:44:04;;;;;;;8.77;2.13;;;;;;;;;;5040797;28;20401;-55
2022/04/06 13:46:30;;;;;;;14.27;2.15;;;;;;;;;;5048553;28;20115;-52
2022/04/06 13:48:57;;;;;;;9.93;1.73;;;;;;;;;;5048811;28;20025;-55
2022/04/06 13:51:27;;;;;;;6.80;1.60;;;;;;;;;;5048060;28;20044;-52
2022/04/06 13:53:53;;;;;;;12.77;1.90;;;;;;;;;;5048600;28;20403;-53
2022/04/06 13:56:20;;;;;;;8.43;2.08;;;;;;;;;;5048257;28;20016;-54
2022/04/06 13:58:46;;;;;;;7.35;1.70;;;;;;;;;;5045064;28;20554;-54
2022/04/06 14:01:13;;;;;;;6.22;1.85;;;;;;;;;;5041097;28;20036;-53
2022/04/06 14:03:39;;;;;;;9.02;1.95;;;;;;;;;;5039612;28;20033;-54
2022/04/06 14:06:06;;;;;;;9.35;2.70;;;;;;;;;;5042301;28;20103;-55
2022/04/06 14:08:32;;;;;;;6.82;2.33;;;;;;;;;;5039680;28;20025;-54
2022/04/06 14:10:59;;;;;;;10.15;1.67;;;;;;;;;;5039970;28;20033;-54
2022/04/06 14:13:25;;;;;;;8.25;1.90;;;;;;;;;;5037499;28;20028;-56
2022/04/06 14:15:51;;;;;;;5.63;1.95;;;;;;;;;;5038738;28;20510;-53
2022/04/06 14:18:19;;;;;;;8.63;2.25;;;;;;;;;;5038867;28;20029;-52
2022/04/06 14:20:46;;;;;;;7.82;1.35;;;;;;;;;;5039299;28;20390;-50
2022/04/06 14:23:12;;;;;;;4.55;1.42;;;;;;;;;;5040159;28;20562;-54
2022/04/06 14:25:38;;;;;;;7.50;1.52;;;;;;;;;;5036208;28;20049;-55
2022/04/06 14:28:04;;;;;;;10.23;1.42;;;;;;;;;;5039767;28;20055;-53
2022/04/06 14:30:33;;;;;;;8.57;1.40;;;;;;;;;;5031020;28;20030;-51
2022/04/06 14:32:59;;;;;;;6.68;1.80;;;;;;;;;;5028531;28;20116;-51
2022/04/06 14:35:26;;;;;;;7.93;2.08;;;;;;;;;;5031832;28;20186;-50
2022/04/06 14:37:52;;;;;;;7.72;1.48;;;;;;;;;;5032632;28;20479;-55
2022/04/06 14:40:18;;;;;;;7.47;1.50;;;;;;;;;;5028108;28;20041;-52
2022/04/06 14:42:44;;;;;;;11.48;2.22;;;;;;;;;;5030192;28;20037;-55
2022/04/06 14:45:11;;;;;;;4.28;1.55;;;;;;;;;;5030127;28;20380;-53
2022/04/06 14:47:37;;;;;;;5.20;1.70;;;;;;;;;;5029789;28;20053;-54
2022/04/06 14:50:04;;;;;;;16.75;2.08;;;;;;;;;;5036071;28;20148;-53
2022/04/06 14:52:30;;;;;;;4.70;1.45;;;;;;;;;;5030098;28;20236;-55
2022/04/06 14:54:56;;;;;;;4.18;1.35;;;;;;;;;;5030293;28;20071;-55